Time;durP1;ratioP1;P1;durP2;ratioP2;P2;SDS_P1;SDS_P2;PMS_P1;PMS_P2;Temp;Humidity;BMP_temperature;BMP_pressure;BME280_temperature;BME280_humidity;BME280_pressure;Samples;Min_cycle;Max_cycle;Signal;HPM_P1;HPM_P2
2021/07/15 00:00:50;;;;;;;7.07;4.53;;;21.40;99.40;;;;;;4249017;27;20503;-74
2021/07/15 00:02:55;;;;;;;11.55;9.30;;;21.40;99.30;;;;;;4231295;28;20635;-74
2021/07/15 00:05:00;;;;;;;17.83;11.13;;;21.40;99.20;;;;;;4251672;27;20051;-74
2021/07/15 00:07:03;;;;;;;10.75;7.07;;;21.40;99.10;;;;;;4251940;27;20052;-75
2021/07/15 00:09:07;;;;;;;10.13;5.30;;;21.50;99.10;;;;;;4249702;27;20112;-73
2021/07/15 00:11:12;;;;;;;8.13;5.20;;;21.50;99.10;;;;;;4248729;27;20108;-74
2021/07/15 00:13:14;;;;;;;;;;;21.40;99.30;;;;;;4248725;27;20059;-73
2021/07/15 00:15:20;;;;;;;10.68;4.82;;;21.40;99.30;;;;;;4249024;27;19919;-73
2021/07/15 00:17:23;;;;;;;10.85;4.93;;;21.20;99.60;;;;;;4248186;27;20071;-73
2021/07/15 00:19:28;;;;;;;11.77;4.90;;;21.20;99.80;;;;;;4249030;27;20123;-74
2021/07/15 00:21:32;;;;;;;;;;;21.10;99.80;;;;;;4251871;27;20048;-73
2021/07/15 00:23:36;;;;;;;9.02;4.53;;;21.10;99.80;;;;;;4235011;27;19920;-73
2021/07/15 00:25:40;;;;;;;9.30;5.03;;;21.10;99.90;;;;;;4231525;28;20059;-74
2021/07/15 00:27:44;;;;;;;8.88;5.15;;;21.00;99.90;;;;;;4231136;28;20072;-73
2021/07/15 00:29:47;;;;;;;12.90;5.28;;;21.00;99.90;;;;;;4249918;27;20556;-74
2021/07/15 00:31:50;;;;;;;11.82;5.43;;;21.00;99.90;;;;;;4249953;27;20457;-76
2021/07/15 00:33:55;;;;;;;9.57;5.20;;;20.90;99.90;;;;;;4251337;27;20051;-75
2021/07/15 00:35:58;;;;;;;9.97;5.20;;;20.80;99.90;;;;;;4258389;27;20043;-74
2021/07/15 00:38:04;;;;;;;9.38;5.03;;;20.70;99.90;;;;;;4240520;28;21089;-75
2021/07/15 00:40:10;;;;;;;7.88;5.20;;;20.80;99.90;;;;;;4257498;27;20043;-74
2021/07/15 00:42:13;;;;;;;8.60;5.65;;;20.90;99.90;;;;;;4234230;27;20110;-75
2021/07/15 00:44:16;;;;;;;10.15;5.78;;;21.00;99.90;;;;;;4249691;27;20535;-73
2021/07/15 00:46:19;;;;;;;11.32;5.68;;;21.00;99.90;;;;;;4249118;27;20043;-74
2021/07/15 00:48:23;;;;;;;12.82;6.28;;;20.70;99.90;;;;;;4247990;27;20051;-74
2021/07/15 00:50:26;;;;;;;7.78;5.78;;;20.80;99.90;;;;;;4247721;27;20134;-73
2021/07/15 00:52:29;;;;;;;9.32;5.85;;;20.90;99.90;;;;;;4229995;28;20142;-74
2021/07/15 00:54:34;;;;;;;10.80;5.95;;;20.90;99.90;;;;;;4256235;27;20058;-73
2021/07/15 00:56:37;;;;;;;;;;;20.80;99.90;;;;;;4247402;27;20112;-73
2021/07/15 00:58:40;;;;;;;7.80;5.45;;;20.80;99.90;;;;;;4264364;27;20379;-73
2021/07/15 01:00:46;;;;;;;13.10;5.97;;;20.90;99.90;;;;;;4264813;27;20078;-73
2021/07/15 01:02:51;;;;;;;13.60;6.72;;;20.90;99.90;;;;;;4266101;27;20122;-75
2021/07/15 01:04:54;;;;;;;11.30;7.05;;;20.90;99.90;;;;;;4264992;27;20078;-73
2021/07/15 01:06:57;;;;;;;12.63;7.20;;;20.90;99.90;;;;;;4265084;27;20055;-73
2021/07/15 01:09:00;;;;;;;12.73;6.90;;;20.60;99.90;;;;;;4264818;27;20410;-73
2021/07/15 01:11:12;;;;;;;9.10;6.00;;;20.60;99.90;;;;;;4264876;27;20126;-74
2021/07/15 01:13:32;;;;;;;12.63;6.95;;;20.60;99.90;;;;;;4264933;27;20410;-74
2021/07/15 01:15:45;;;;;;;15.32;7.50;;;20.60;99.90;;;;;;4264668;27;20063;-73
2021/07/15 01:17:57;;;;;;;11.13;6.95;;;20.60;99.90;;;;;;4264962;27;20119;-73
2021/07/15 01:20:37;;;;;;;10.05;6.63;;;20.60;99.90;;;;;;4264592;27;20127;-74
2021/07/15 01:22:43;;;;;;;11.32;7.05;;;20.70;99.90;;;;;;4205048;27;20464;-73
2021/07/15 01:25:34;;;;;;;13.05;7.10;;;20.60;99.90;;;;;;4246910;27;20055;-74
2021/07/15 01:28:03;;;;;;;16.42;7.50;;;20.60;99.90;;;;;;4247500;27;20082;-75
2021/07/15 01:30:09;;;;;;;17.48;7.60;;;20.60;99.90;;;;;;4248042;27;20216;-73
2021/07/15 01:32:15;;;;;;;12.95;6.72;;;20.70;99.90;;;;;;4247671;27;20039;-73
2021/07/15 01:34:21;;;;;;;16.38;7.80;;;20.60;99.90;;;;;;4247082;27;20491;-74
2021/07/15 01:36:25;;;;;;;15.65;7.15;;;20.70;99.90;;;;;;4247657;27;20131;-73
2021/07/15 01:38:32;;;;;;;11.80;6.88;;;20.60;99.90;;;;;;4246653;27;20055;-73
2021/07/15 01:40:44;;;;;;;11.13;7.38;;;20.60;99.90;;;;;;4248852;27;20523;-73
2021/07/15 01:42:50;;;;;;;12.55;7.20;;;20.50;99.90;;;;;;4245842;27;20526;-73
2021/07/15 01:44:54;;;;;;;15.25;8.20;;;20.60;99.90;;;;;;4263981;27;20162;-73
2021/07/15 01:46:59;;;;;;;15.50;7.37;;;20.50;99.90;;;;;;4263994;27;20130;-73
2021/07/15 01:49:04;;;;;;;16.15;8.15;;;20.40;99.90;;;;;;4264023;27;20517;-74
2021/07/15 01:51:08;;;;;;;14.43;7.90;;;20.50;99.90;;;;;;4263949;27;20111;-73
2021/07/15 01:53:12;;;;;;;13.95;7.47;;;20.60;99.90;;;;;;4263943;27;20506;-73
2021/07/15 01:55:15;;;;;;;13.88;7.72;;;20.50;99.90;;;;;;4249308;27;20459;-73
2021/07/15 01:57:20;;;;;;;13.40;7.22;;;20.60;99.90;;;;;;4246876;27;20055;-74
2021/07/15 01:59:25;;;;;;;;;;;20.50;99.90;;;;;;4247430;27;20142;-74
2021/07/15 02:01:28;;;;;;;16.55;7.68;;;20.30;99.90;;;;;;4246274;27;20014;-73
2021/07/15 02:03:36;;;;;;;17.27;7.88;;;20.40;99.90;;;;;;4246389;27;20111;-74
2021/07/15 02:05:41;;;;;;;13.50;7.65;;;20.20;99.90;;;;;;4228398;28;20056;-73
2021/07/15 02:07:45;;;;;;;13.63;8.00;;;20.20;99.90;;;;;;4246484;27;20104;-73
2021/07/15 02:09:50;;;;;;;12.83;7.20;;;20.20;99.90;;;;;;4246327;27;20111;-73
2021/07/15 02:11:54;;;;;;;;;;;20.30;99.90;;;;;;4246877;27;20472;-74
2021/07/15 02:14:00;;;;;;;13.35;7.80;;;20.40;99.90;;;;;;4246678;27;19919;-74
2021/07/15 02:16:06;;;;;;;18.77;8.30;;;20.20;99.90;;;;;;4246587;27;20055;-73
2021/07/15 02:18:12;;;;;;;13.57;7.60;;;20.30;99.90;;;;;;4246074;27;20083;-73
2021/07/15 02:20:19;;;;;;;16.13;8.25;;;20.30;99.90;;;;;;4246941;27;20142;-74
2021/07/15 02:22:22;;;;;;;15.23;8.15;;;20.20;99.90;;;;;;4247114;27;20499;-73
2021/07/15 02:24:29;;;;;;;16.00;8.02;;;20.10;99.90;;;;;;4246570;27;20134;-77
2021/07/15 02:26:35;;;;;;;14.93;8.07;;;20.20;99.90;;;;;;4246983;27;20047;-76
2021/07/15 02:28:38;;;;;;;17.90;8.50;;;20.20;99.90;;;;;;4250440;27;20066;-77
2021/07/15 02:30:45;;;;;;;13.25;8.60;;;20.20;99.90;;;;;;4252856;28;20084;-75
2021/07/15 02:32:55;;;;;;;17.08;7.95;;;20.20;99.90;;;;;;4250462;27;20051;-73
2021/07/15 02:35:03;;;;;;;18.25;9.00;;;20.20;99.90;;;;;;4247298;27;20116;-74
2021/07/15 02:37:11;;;;;;;16.45;7.97;;;20.10;99.90;;;;;;4246837;28;20495;-73
2021/07/15 02:39:14;;;;;;;15.98;8.60;;;20.10;99.90;;;;;;4246742;28;20126;-74
2021/07/15 02:41:17;;;;;;;15.57;7.90;;;20.10;99.90;;;;;;4254630;27;20487;-73
2021/07/15 02:43:20;;;;;;;16.05;8.45;;;20.00;99.90;;;;;;4264208;27;20487;-73
2021/07/15 02:45:24;;;;;;;13.50;8.35;;;20.00;99.90;;;;;;4263668;27;20099;-74
2021/07/15 02:47:27;;;;;;;14.02;7.18;;;20.00;99.90;;;;;;4263947;27;20062;-73
2021/07/15 02:49:30;;;;;;;13.52;8.40;;;20.20;99.90;;;;;;4264051;27;20189;-74
2021/07/15 02:51:33;;;;;;;12.57;7.53;;;20.00;99.90;;;;;;4263378;27;20574;-74
2021/07/15 02:53:39;;;;;;;13.60;7.80;;;20.00;99.90;;;;;;4262512;27;20061;-73
2021/07/15 02:55:48;;;;;;;17.58;8.85;;;20.10;99.90;;;;;;4246464;28;20407;-73
2021/07/15 02:57:59;;;;;;;14.95;9.32;;;19.90;99.90;;;;;;4246183;28;20055;-74
2021/07/15 03:00:07;;;;;;;15.45;8.25;;;19.80;99.90;;;;;;4246283;28;20522;-74
2021/07/15 03:02:20;;;;;;;21.45;8.85;;;19.80;99.90;;;;;;4246959;28;20128;-74
2021/07/15 03:04:29;;;;;;;17.17;8.38;;;19.80;99.90;;;;;;4245920;27;20051;-74
2021/07/15 03:06:35;;;;;;;16.17;8.77;;;19.70;99.90;;;;;;4246294;28;20516;-75
2021/07/15 03:08:50;;;;;;;17.80;8.57;;;19.60;99.90;;;;;;4246226;28;20104;-74
2021/07/15 03:10:54;;;;;;;15.07;9.13;;;19.70;99.90;;;;;;4247777;28;20093;-75
2021/07/15 03:12:58;;;;;;;16.13;8.43;;;19.70;99.90;;;;;;4233777;28;20055;-75
2021/07/15 03:15:03;;;;;;;18.40;9.25;;;19.80;99.90;;;;;;4250698;28;20104;-73
2021/07/15 03:17:10;;;;;;;18.63;8.95;;;19.70;99.90;;;;;;4247133;28;20077;-75
2021/07/15 03:19:16;;;;;;;16.58;9.10;;;19.70;99.90;;;;;;4246358;28;20058;-74
2021/07/15 03:21:21;;;;;;;17.55;9.05;;;19.70;99.90;;;;;;4255496;27;20051;-74
2021/07/15 03:23:25;;;;;;;16.83;9.57;;;19.80;99.90;;;;;;4267805;27;20095;-74
2021/07/15 03:25:32;;;;;;;18.52;9.18;;;19.70;99.90;;;;;;4270022;27;20054;-76
2021/07/15 03:27:38;;;;;;;18.05;8.98;;;19.70;99.90;;;;;;4272112;27;20091;-74
2021/07/15 03:29:44;;;;;;;19.92;8.88;;;19.80;99.90;;;;;;4272517;27;20050;-75
2021/07/15 03:31:47;;;;;;;22.92;9.10;;;19.90;99.90;;;;;;4270868;27;20050;-73
2021/07/15 03:33:51;;;;;;;18.27;9.40;;;19.90;99.90;;;;;;4270279;27;20059;-73
2021/07/15 03:35:55;;;;;;;21.52;9.18;;;19.90;99.90;;;;;;4268192;27;20078;-73
2021/07/15 03:37:59;;;;;;;17.17;9.05;;;19.80;99.90;;;;;;4251038;27;20479;-74
2021/07/15 03:40:03;;;;;;;14.52;8.48;;;19.90;99.90;;;;;;4268080;27;20082;-73
2021/07/15 03:42:08;;;;;;;14.40;8.60;;;19.90;99.90;;;;;;4251831;27;20051;-74
2021/07/15 03:44:12;;;;;;;25.13;9.55;;;19.90;99.90;;;;;;4250580;27;20054;-74
2021/07/15 03:46:16;;;;;;;19.20;10.18;;;19.90;99.90;;;;;;4250878;27;20403;-74
2021/07/15 03:48:23;;;;;;;17.23;9.07;;;19.90;99.90;;;;;;4250108;27;20071;-74
2021/07/15 03:50:29;;;;;;;19.08;9.10;;;20.00;99.90;;;;;;4249941;27;20491;-74
2021/07/15 03:52:33;;;;;;;16.85;9.10;;;19.90;99.90;;;;;;4249551;27;20074;-74
2021/07/15 03:54:38;;;;;;;19.53;9.43;;;19.90;99.90;;;;;;4258018;27;20085;-74
2021/07/15 03:56:44;;;;;;;16.95;9.20;;;20.00;99.90;;;;;;4265567;27;20096;-73
2021/07/15 03:58:49;;;;;;;17.27;8.50;;;20.10;99.90;;;;;;4247967;27;20047;-74
2021/07/15 04:00:58;;;;;;;20.15;8.85;;;20.20;99.90;;;;;;4266225;27;20066;-74
2021/07/15 04:03:04;;;;;;;19.73;8.82;;;20.20;99.90;;;;;;4247711;27;20116;-73
2021/07/15 04:05:09;;;;;;;17.05;8.85;;;20.20;99.90;;;;;;4265514;27;20119;-74
2021/07/15 04:07:13;;;;;;;16.23;8.60;;;20.20;99.90;;;;;;4266026;27;20108;-78
2021/07/15 04:09:17;;;;;;;21.40;8.97;;;20.20;99.90;;;;;;4265740;27;20093;-74
2021/07/15 04:11:23;;;;;;;18.02;8.80;;;20.30;99.90;;;;;;4265536;27;20054;-74
2021/07/15 04:13:27;;;;;;;21.33;8.30;;;20.30;99.90;;;;;;4265571;27;20046;-74
2021/07/15 04:15:37;;;;;;;;;;;20.20;99.90;;;;;;4265840;27;20109;-74
2021/07/15 04:17:46;;;;;;;15.30;9.07;;;20.10;99.90;;;;;;4265477;27;19919;-74
2021/07/15 04:19:51;;;;;;;15.18;8.40;;;20.20;99.90;;;;;;4247881;27;20437;-74
2021/07/15 04:21:55;;;;;;;14.38;8.40;;;20.20;99.90;;;;;;4233275;27;20056;-74
2021/07/15 04:24:00;;;;;;;15.55;8.98;;;20.20;99.90;;;;;;4248297;27;20051;-74
2021/07/15 04:26:05;;;;;;;13.20;8.63;;;20.30;99.90;;;;;;4248508;27;20128;-74
2021/07/15 04:28:08;;;;;;;14.20;8.35;;;20.30;99.90;;;;;;4248972;27;20661;-74
2021/07/15 04:30:13;;;;;;;16.20;8.52;;;20.40;99.90;;;;;;4248473;27;20051;-76
2021/07/15 04:32:23;;;;;;;17.48;9.25;;;20.40;99.90;;;;;;4248599;27;20104;-74
2021/07/15 04:34:27;;;;;;;12.68;8.13;;;20.40;99.90;;;;;;4247743;27;20487;-74
2021/07/15 04:36:31;;;;;;;20.25;9.15;;;20.40;99.90;;;;;;4248647;27;20043;-74
2021/07/15 04:38:35;;;;;;;19.30;7.80;;;20.40;99.90;;;;;;4230379;28;20071;-74
2021/07/15 04:40:38;;;;;;;14.07;8.02;;;20.50;99.90;;;;;;4250734;27;20055;-74
2021/07/15 04:42:44;;;;;;;14.55;7.90;;;20.60;99.90;;;;;;4266102;27;20091;-78
2021/07/15 04:44:48;;;;;;;11.95;8.55;;;20.50;99.90;;;;;;4267035;27;20055;-76
2021/07/15 04:46:52;;;;;;;21.80;8.82;;;20.50;99.90;;;;;;4267239;27;20129;-75
2021/07/15 04:48:56;;;;;;;12.73;8.18;;;20.40;99.90;;;;;;4267215;27;20047;-74
2021/07/15 04:51:01;;;;;;;20.80;8.65;;;20.40;99.90;;;;;;4267326;27;20440;-76
2021/07/15 04:53:07;;;;;;;14.13;8.55;;;20.40;99.90;;;;;;4267004;27;20061;-74
2021/07/15 04:55:11;;;;;;;20.63;9.00;;;20.40;99.90;;;;;;4254046;27;20511;-74
2021/07/15 04:57:15;;;;;;;15.55;8.43;;;20.40;99.90;;;;;;4250835;27;20134;-73
2021/07/15 04:59:19;;;;;;;14.07;8.13;;;20.50;99.90;;;;;;4249672;27;20047;-74
2021/07/15 05:01:22;;;;;;;17.00;8.00;;;20.50;99.90;;;;;;4249771;27;20134;-74
2021/07/15 05:03:30;;;;;;;17.20;8.18;;;20.60;99.90;;;;;;4249906;27;20430;-74
2021/07/15 05:05:35;;;;;;;15.55;8.13;;;20.60;99.90;;;;;;4257083;27;20091;-74
2021/07/15 05:07:39;;;;;;;19.02;8.02;;;20.60;99.90;;;;;;4266325;27;20494;-74
2021/07/15 05:09:42;;;;;;;16.52;8.98;;;20.60;99.90;;;;;;4266459;27;20059;-75
2021/07/15 05:11:45;;;;;;;13.90;8.23;;;20.50;99.90;;;;;;4266332;27;20066;-75
2021/07/15 05:13:49;;;;;;;16.10;8.02;;;20.60;99.90;;;;;;4247371;27;20519;-74
2021/07/15 05:15:53;;;;;;;18.42;9.02;;;20.70;99.90;;;;;;4265586;27;20070;-74
2021/07/15 05:17:56;;;;;;;21.48;7.68;;;20.70;99.90;;;;;;4265035;27;20133;-74
2021/07/15 05:19:59;;;;;;;20.10;8.52;;;20.80;99.90;;;;;;4266071;27;20046;-76
2021/07/15 05:22:04;;;;;;;16.42;8.00;;;20.80;99.90;;;;;;4249992;27;20051;-74
2021/07/15 05:24:08;;;;;;;16.95;8.13;;;20.70;99.90;;;;;;4231335;28;20488;-74
2021/07/15 05:26:11;;;;;;;23.92;8.93;;;20.70;99.90;;;;;;4250166;27;20142;-77
2021/07/15 05:28:14;;;;;;;17.38;8.15;;;20.80;99.90;;;;;;4250544;27;20058;-74
2021/07/15 05:30:18;;;;;;;18.92;8.25;;;20.80;99.90;;;;;;4250256;27;20422;-75
2021/07/15 05:32:21;;;;;;;24.85;8.00;;;20.80;99.90;;;;;;4250035;27;20051;-73
2021/07/15 05:34:24;;;;;;;14.95;7.57;;;20.90;99.90;;;;;;4250011;27;20050;-75
2021/07/15 05:36:27;;;;;;;21.90;7.18;;;20.90;99.90;;;;;;4249477;27;20062;-75
2021/07/15 05:38:32;;;;;;;14.85;7.70;;;20.90;99.90;;;;;;4252376;27;20051;-76
2021/07/15 05:40:37;;;;;;;20.55;8.43;;;20.80;99.90;;;;;;4255024;27;20047;-74
2021/07/15 05:42:43;;;;;;;24.60;7.38;;;20.60;99.90;;;;;;4268395;27;20054;-78
2021/07/15 05:44:48;;;;;;;16.23;7.50;;;20.70;99.90;;;;;;4267878;27;20050;-74
2021/07/15 05:46:51;;;;;;;20.38;7.63;;;20.80;99.90;;;;;;4267706;27;20051;-77
2021/07/15 05:49:08;;;;;;;15.63;8.82;;;20.90;99.90;;;;;;4267299;27;20051;-74
2021/07/15 05:51:11;;;;;;;18.75;8.15;;;20.80;99.90;;;;;;4267346;27;20051;-75
2021/07/15 05:53:14;;;;;;;15.52;8.00;;;20.80;99.90;;;;;;4269141;27;20406;-76
2021/07/15 05:55:19;;;;;;;16.75;7.68;;;20.60;99.90;;;;;;4260510;27;20422;-74
2021/07/15 05:57:22;;;;;;;;;;;20.70;99.90;;;;;;4259035;27;20059;-75
2021/07/15 05:59:25;;;;;;;23.30;8.13;;;20.80;99.90;;;;;;4251206;27;20286;-74
2021/07/15 06:01:29;;;;;;;19.92;7.60;;;20.80;99.90;;;;;;4248496;27;20499;-74
2021/07/15 06:03:32;;;;;;;19.23;7.70;;;20.90;99.90;;;;;;4249635;27;20043;-77
2021/07/15 06:05:38;;;;;;;16.70;7.47;;;20.70;99.90;;;;;;4253281;27;20059;-75
2021/07/15 06:07:42;;;;;;;16.42;7.10;;;20.80;99.90;;;;;;4255691;27;20476;-79
2021/07/15 06:09:45;;;;;;;20.10;7.17;;;20.80;99.90;;;;;;4253121;27;20100;-76
2021/07/15 06:11:51;;;;;;;11.63;6.80;;;20.70;99.90;;;;;;4252182;27;20051;-74
2021/07/15 06:13:55;;;;;;;16.02;7.35;;;20.80;99.90;;;;;;4253604;27;20061;-77
2021/07/15 06:15:59;;;;;;;18.23;7.35;;;20.90;99.90;;;;;;4259870;27;20058;-76
2021/07/15 06:18:06;;;;;;;21.83;7.32;;;21.00;99.90;;;;;;4256102;27;20134;-74
2021/07/15 06:20:13;;;;;;;15.13;6.43;;;21.00;99.90;;;;;;4249971;27;20059;-74
2021/07/15 06:22:17;;;;;;;12.63;6.32;;;21.10;99.90;;;;;;4247621;27;20047;-73
2021/07/15 06:24:20;;;;;;;15.07;6.60;;;21.20;99.90;;;;;;4247418;27;20536;-73
2021/07/15 06:26:23;;;;;;;18.48;6.22;;;21.30;99.90;;;;;;4228751;27;20056;-73
2021/07/15 06:28:27;;;;;;;17.35;5.90;;;21.30;99.90;;;;;;4247255;27;20055;-76
2021/07/15 06:30:31;;;;;;;18.58;6.80;;;21.20;99.90;;;;;;4251402;27;20061;-75
2021/07/15 06:32:36;;;;;;;14.93;6.43;;;21.20;99.90;;;;;;4253927;27;20663;-76
2021/07/15 06:34:40;;;;;;;18.25;6.30;;;21.30;99.90;;;;;;4252608;27;20062;-74
2021/07/15 06:36:45;;;;;;;16.10;6.50;;;21.40;99.90;;;;;;4246716;28;20061;-74
2021/07/15 06:38:48;;;;;;;14.63;6.25;;;21.60;99.90;;;;;;4246412;28;20049;-73
2021/07/15 06:40:55;;;;;;;11.65;5.53;;;21.50;99.90;;;;;;4250708;27;20055;-74
2021/07/15 06:42:58;;;;;;;23.27;6.80;;;21.60;99.90;;;;;;4263886;27;20047;-73
2021/07/15 06:45:08;;;;;;;14.73;6.47;;;21.50;99.90;;;;;;4264380;27;20050;-75
2021/07/15 06:47:11;;;;;;;16.73;5.63;;;21.60;99.90;;;;;;4268230;27;20081;-74
2021/07/15 06:49:14;;;;;;;18.92;6.85;;;21.60;99.90;;;;;;4267683;27;20107;-73
2021/07/15 06:51:19;;;;;;;20.73;7.17;;;21.60;99.90;;;;;;4264769;27;20126;-73
2021/07/15 06:53:22;;;;;;;15.80;6.40;;;21.70;99.90;;;;;;4263482;27;20075;-73
2021/07/15 06:55:25;;;;;;;12.23;6.22;;;21.50;99.90;;;;;;4247617;27;20063;-74
2021/07/15 06:57:29;;;;;;;14.55;6.88;;;21.70;99.90;;;;;;4248569;27;20051;-73
2021/07/15 06:59:32;;;;;;;19.88;6.30;;;21.90;99.90;;;;;;4250101;27;20372;-73
2021/07/15 07:01:37;;;;;;;13.93;6.00;;;21.90;99.90;;;;;;4249943;27;20053;-73
2021/07/15 07:03:40;;;;;;;11.57;6.13;;;22.00;99.90;;;;;;4249863;27;20658;-73
2021/07/15 07:05:46;;;;;;;12.68;6.00;;;22.00;99.60;;;;;;4262850;27;20054;-75
2021/07/15 07:07:52;;;;;;;22.45;6.88;;;22.00;99.90;;;;;;4251513;27;20051;-74
2021/07/15 07:09:55;;;;;;;9.63;5.63;;;22.00;99.90;;;;;;4267084;27;20136;-73
2021/07/15 07:11:58;;;;;;;18.50;6.68;;;22.10;99.80;;;;;;4267532;27;20051;-74
2021/07/15 07:14:01;;;;;;;10.38;5.55;;;22.20;99.70;;;;;;4249421;27;20058;-74
2021/07/15 07:16:05;;;;;;;17.17;6.18;;;22.20;99.40;;;;;;4267753;27;20061;-74
2021/07/15 07:18:09;;;;;;;15.55;6.20;;;22.10;99.60;;;;;;4267664;27;20050;-74
2021/07/15 07:20:14;;;;;;;10.38;5.75;;;22.20;99.50;;;;;;4268121;27;20110;-74
2021/07/15 07:22:17;;;;;;;18.35;5.88;;;22.30;99.70;;;;;;4267978;27;20061;-75
2021/07/15 07:24:21;;;;;;;11.90;5.45;;;22.30;99.30;;;;;;4266830;27;20513;-74
2021/07/15 07:26:26;;;;;;;18.42;5.47;;;22.30;99.30;;;;;;4266980;27;20379;-74
2021/07/15 07:28:29;;;;;;;12.77;5.60;;;22.40;99.20;;;;;;4266715;27;20061;-74
2021/07/15 07:30:33;;;;;;;17.55;6.05;;;22.50;99.30;;;;;;4267051;27;20051;-74
2021/07/15 07:32:37;;;;;;;14.52;5.20;;;22.60;99.10;;;;;;4269786;27;20077;-76
2021/07/15 07:34:42;;;;;;;14.00;5.43;;;22.50;99.30;;;;;;4252183;27;20055;-77
2021/07/15 07:36:45;;;;;;;9.82;5.25;;;22.60;99.00;;;;;;4271416;27;20051;-74
2021/07/15 07:38:48;;;;;;;13.13;5.32;;;22.80;98.50;;;;;;4269901;27;20057;-76
2021/07/15 07:40:51;;;;;;;12.52;5.13;;;22.80;98.80;;;;;;4269495;27;20380;-76
2021/07/15 07:42:56;;;;;;;14.77;5.50;;;22.90;98.20;;;;;;4268835;27;20057;-74
2021/07/15 07:44:59;;;;;;;21.95;5.15;;;23.00;98.10;;;;;;4272538;27;20054;-74
2021/07/15 07:47:02;;;;;;;11.25;4.80;;;22.80;98.20;;;;;;4269125;27;20406;-74
2021/07/15 07:49:06;;;;;;;14.80;5.25;;;22.70;98.40;;;;;;4268134;27;20050;-74
2021/07/15 07:51:10;;;;;;;16.10;4.70;;;22.70;98.40;;;;;;4267758;27;20102;-74
2021/07/15 07:53:13;;;;;;;8.98;4.43;;;22.60;97.70;;;;;;4267638;27;20060;-74
2021/07/15 07:55:17;;;;;;;11.73;4.90;;;22.60;98.00;;;;;;4251613;27;20398;-74
2021/07/15 07:57:20;;;;;;;7.75;4.97;;;22.40;98.10;;;;;;4230739;28;20140;-73
2021/07/15 07:59:23;;;;;;;13.52;4.70;;;22.50;98.10;;;;;;4248772;27;20062;-74
2021/07/15 08:01:26;;;;;;;7.22;4.35;;;22.40;97.90;;;;;;4231177;28;20051;-74
2021/07/15 08:03:31;;;;;;;9.57;4.57;;;22.60;97.50;;;;;;4251922;27;20087;-74
2021/07/15 08:05:40;;;;;;;7.90;3.72;;;22.70;98.10;;;;;;4253544;27;20399;-75
2021/07/15 08:07:49;;;;;;;11.70;4.28;;;22.90;98.10;;;;;;4252654;27;20058;-73
2021/07/15 08:09:52;;;;;;;11.05;4.40;;;23.10;97.30;;;;;;4248436;27;20051;-74
2021/07/15 08:11:55;;;;;;;10.07;4.05;;;23.20;97.50;;;;;;4230824;28;20048;-73
2021/07/15 08:13:59;;;;;;;7.18;4.05;;;23.20;97.10;;;;;;4230821;27;20048;-74
2021/07/15 08:16:02;;;;;;;7.20;4.00;;;23.20;97.20;;;;;;4249041;27;20051;-74
2021/07/15 08:18:05;;;;;;;6.82;3.63;;;23.50;97.50;;;;;;4249461;27;20051;-74
2021/07/15 08:20:10;;;;;;;9.23;4.15;;;23.70;97.20;;;;;;4248981;27;20048;-73
2021/07/15 08:22:13;;;;;;;11.25;3.72;;;23.80;96.20;;;;;;4249933;27;20444;-73
2021/07/15 08:24:18;;;;;;;5.07;3.72;;;23.90;96.20;;;;;;4250317;27;20047;-73
2021/07/15 08:26:21;;;;;;;10.93;4.13;;;23.90;95.30;;;;;;4251603;27;20058;-74
2021/07/15 08:28:24;;;;;;;10.57;4.40;;;23.70;95.20;;;;;;4250847;27;20380;-74
2021/07/15 08:30:27;;;;;;;11.48;4.50;;;23.90;96.40;;;;;;4250374;27;20049;-74
2021/07/15 08:32:30;;;;;;;9.40;3.80;;;24.00;95.10;;;;;;4248358;27;20066;-74
2021/07/15 08:34:50;;;;;;;8.57;3.90;;;24.00;94.60;;;;;;4248231;27;20138;-74
2021/07/15 08:36:53;;;;;;;13.57;4.57;;;24.00;95.00;;;;;;4248323;27;20062;-74
2021/07/15 08:38:56;;;;;;;7.20;4.00;;;23.90;95.20;;;;;;4248514;27;20047;-74
2021/07/15 08:41:01;;;;;;;13.40;4.38;;;24.00;95.40;;;;;;4254215;27;20248;-74
2021/07/15 08:43:06;;;;;;;5.70;3.83;;;24.00;95.00;;;;;;4265922;27;20058;-75
2021/07/15 08:45:10;;;;;;;8.20;4.07;;;23.90;94.80;;;;;;4266480;27;20061;-73
2021/07/15 08:47:14;;;;;;;6.15;3.75;;;24.00;95.30;;;;;;4266442;27;20383;-75
2021/07/15 08:49:21;;;;;;;8.57;3.70;;;24.30;95.30;;;;;;4247029;27;20522;-73
2021/07/15 08:51:25;;;;;;;7.97;3.70;;;24.50;95.40;;;;;;4266346;27;20053;-73
2021/07/15 08:53:32;;;;;;;5.93;3.70;;;24.30;93.10;;;;;;4267094;27;20069;-74
2021/07/15 08:57:49;;;;;;;4.57;3.40;;;24.40;93.00;;;;;;4249051;27;20463;-74
2021/07/15 08:59:53;;;;;;;6.07;3.50;;;24.40;93.60;;;;;;4250415;27;20059;-74
2021/07/15 09:01:56;;;;;;;5.40;3.45;;;24.50;93.30;;;;;;4250091;27;20051;-74
2021/07/15 09:04:02;;;;;;;9.07;3.70;;;24.50;93.20;;;;;;4250574;27;20056;-75
2021/07/15 09:06:10;;;;;;;7.00;3.17;;;24.60;93.00;;;;;;4233724;27;20047;-73
2021/07/15 09:08:14;;;;;;;9.20;3.50;;;24.40;92.60;;;;;;4249776;27;20059;-74
2021/07/15 09:10:18;;;;;;;;;;;24.20;92.70;;;;;;4256952;27;20035;-73
2021/07/15 09:12:23;;;;;;;7.97;3.83;;;24.30;92.80;;;;;;4265854;27;19933;-74
2021/07/15 09:14:27;;;;;;;16.45;4.43;;;24.10;92.80;;;;;;4247477;27;20047;-74
2021/07/15 09:16:31;;;;;;;19.25;4.28;;;24.00;93.40;;;;;;4265481;27;20077;-75
2021/07/15 09:18:58;;;;;;;10.13;3.58;;;24.10;93.50;;;;;;4259442;27;20047;-74
2021/07/15 09:21:22;;;;;;;9.07;3.47;;;24.10;93.10;;;;;;4254732;27;20052;-74
2021/07/15 09:23:33;;;;;;;5.18;3.40;;;24.20;92.90;;;;;;4265523;27;20042;-74
2021/07/15 09:25:56;;;;;;;10.38;4.18;;;24.20;93.10;;;;;;4259852;27;20407;-74
2021/07/15 09:28:00;;;;;;;8.70;3.80;;;24.10;93.50;;;;;;4248669;27;20408;-75
2021/07/15 09:30:10;;;;;;;5.90;3.35;;;24.10;93.40;;;;;;4252049;27;20335;-74
2021/07/15 09:32:17;;;;;;;14.10;3.80;;;24.20;93.50;;;;;;4268994;27;20051;-74
2021/07/15 09:34:20;;;;;;;11.20;3.50;;;24.20;92.70;;;;;;4266779;27;20403;-74
2021/07/15 09:36:24;;;;;;;17.92;3.78;;;24.30;92.70;;;;;;4268872;27;20070;-75
2021/07/15 09:38:27;;;;;;;17.07;3.50;;;24.20;92.50;;;;;;4267026;27;20061;-73
2021/07/15 09:40:38;;;;;;;16.58;4.07;;;24.40;92.80;;;;;;4265318;27;20051;-76
2021/07/15 09:42:41;;;;;;;7.90;3.80;;;24.30;92.50;;;;;;4250831;27;20079;-75
2021/07/15 09:44:46;;;;;;;5.50;3.45;;;24.30;92.80;;;;;;4249172;27;20140;-74
2021/07/15 09:46:51;;;;;;;5.82;3.50;;;24.40;92.10;;;;;;4267119;27;20527;-74
2021/07/15 09:49:07;;;;;;;10.60;3.10;;;24.60;92.80;;;;;;4268375;27;20047;-75
2021/07/15 09:51:14;;;;;;;5.05;3.58;;;24.80;92.50;;;;;;4269403;27;20141;-74
2021/07/15 09:53:22;;;;;;;13.13;4.32;;;24.80;92.40;;;;;;4268758;27;20050;-74
2021/07/15 09:55:26;;;;;;;7.55;3.75;;;24.70;92.70;;;;;;4255100;27;20051;-76
2021/07/15 09:57:31;;;;;;;8.10;4.15;;;25.00;92.10;;;;;;4252365;27;20447;-74
2021/07/15 09:59:48;;;;;;;7.68;3.85;;;24.90;92.50;;;;;;4251915;27;20055;-74
2021/07/15 10:01:54;;;;;;;8.10;3.63;;;24.90;91.70;;;;;;4250718;27;20410;-74
2021/07/15 10:04:03;;;;;;;7.60;3.60;;;24.90;91.70;;;;;;4250340;27;20047;-75
2021/07/15 10:06:08;;;;;;;8.98;4.00;;;25.00;91.10;;;;;;4265913;27;20051;-75
2021/07/15 10:08:20;;;;;;;11.75;3.72;;;25.00;91.80;;;;;;4253511;27;20115;-74
2021/07/15 10:10:28;;;;;;;6.38;3.42;;;25.00;91.90;;;;;;4250962;27;20050;-78
2021/07/15 10:12:33;;;;;;;3.88;3.20;;;25.20;91.30;;;;;;4266564;27;20053;-76
2021/07/15 10:14:41;;;;;;;8.57;3.50;;;25.20;91.60;;;;;;4250430;27;20444;-76
2021/07/15 10:16:46;;;;;;;6.38;3.60;;;25.00;91.00;;;;;;4271633;27;20064;-77
2021/07/15 10:18:52;;;;;;;5.18;3.58;;;25.10;91.50;;;;;;4272664;27;20133;-76
2021/07/15 10:20:56;;;;;;;4.68;3.55;;;25.20;91.10;;;;;;4271276;27;20070;-75
2021/07/15 10:22:59;;;;;;;4.25;3.20;;;25.30;91.50;;;;;;4271089;27;20058;-74
2021/07/15 10:25:03;;;;;;;4.05;3.25;;;25.10;90.80;;;;;;4266764;27;20145;-74
2021/07/15 10:27:23;;;;;;;5.18;3.13;;;25.10;90.90;;;;;;4260363;27;20061;-75
2021/07/15 10:29:27;;;;;;;5.70;2.90;;;25.20;90.60;;;;;;4266699;27;20058;-74
2021/07/15 10:31:30;;;;;;;5.18;3.28;;;25.30;90.70;;;;;;4265776;27;20042;-74
2021/07/15 10:33:34;;;;;;;5.00;3.05;;;25.20;90.30;;;;;;4263261;27;20074;-74
2021/07/15 10:35:39;;;;;;;4.30;3.00;;;25.00;90.40;;;;;;4264824;27;20054;-72
2021/07/15 10:37:44;;;;;;;8.32;3.35;;;25.00;90.40;;;;;;4264880;27;20470;-73
2021/07/15 10:39:48;;;;;;;3.70;2.92;;;25.20;90.70;;;;;;4249867;28;20055;-74
2021/07/15 10:41:54;;;;;;;6.95;2.88;;;25.10;90.70;;;;;;4261469;27;20057;-75
2021/07/15 10:43:58;;;;;;;3.40;3.10;;;25.10;90.80;;;;;;4247123;27;20051;-73
2021/07/15 10:46:04;;;;;;;4.82;2.65;;;25.30;90.50;;;;;;4262919;27;20065;-73
2021/07/15 10:48:09;;;;;;;7.53;3.58;;;25.30;90.40;;;;;;4263843;27;20054;-73
2021/07/15 10:50:12;;;;;;;6.22;2.88;;;25.20;90.60;;;;;;4262944;27;20046;-74